Time;durP1;ratioP1;P1;durP2;ratioP2;P2;SDS_P1;SDS_P2;PMS_P1;PMS_P2;Temp;Humidity;BMP_temperature;BMP_pressure;BME280_temperature;BME280_humidity;BME280_pressure;Samples;Min_cycle;Max_cycle;Signal;HPM_P1;HPM_P2
2021/10/09 00:02:05;;;;;;;2.20;1.37;;;4.30;48.00;;;;;;4853867;28;20198;-81
2021/10/09 00:04:27;;;;;;;1.10;0.80;;;4.10;48.00;;;;;;4840375;28;20187;-80
2021/10/09 00:06:50;;;;;;;2.10;1.23;;;;;;;;;;4839763;28;20281;-79
2021/10/09 00:09:13;;;;;;;1.37;0.80;;;4.20;47.80;;;;;;4823140;28;20756;-80
2021/10/09 00:11:37;;;;;;;1.50;0.93;;;;;;;;;;4840369;28;20237;-79
2021/10/09 00:14:02;;;;;;;2.50;1.43;;;4.00;48.10;;;;;;4806224;28;20246;-81
2021/10/09 00:16:25;;;;;;;1.13;0.83;;;;;;;;;;4840431;28;20599;-79
2021/10/09 00:18:48;;;;;;;1.10;0.70;;;;;;;;;;4839994;28;20190;-82
2021/10/09 00:21:11;;;;;;;1.30;0.80;;;;;;;;;;4840336;28;20194;-80
2021/10/09 00:23:33;;;;;;;1.20;0.80;;;4.20;47.50;;;;;;4840377;28;20191;-82
2021/10/09 00:25:57;;;;;;;2.80;1.53;;;;;;;;;;4854469;28;20217;-83
2021/10/09 00:28:19;;;;;;;1.07;0.83;;;4.40;47.90;;;;;;4840365;28;20236;-82
2021/10/09 00:30:43;;;;;;;1.17;0.90;;;4.30;48.30;;;;;;4840058;28;20249;-80
2021/10/09 00:33:06;;;;;;;3.60;1.67;;;;;;;;;;4854266;28;20206;-80
2021/10/09 00:35:28;;;;;;;1.50;0.90;;;;;;;;;;4840236;28;20265;-81
2021/10/09 00:37:51;;;;;;;2.43;1.13;;;4.40;48.10;;;;;;4806043;28;20785;-80
2021/10/09 00:40:16;;;;;;;1.10;0.83;;;4.40;48.20;;;;;;4840001;28;20245;-82
2021/10/09 00:42:38;;;;;;;1.20;0.90;;;4.40;47.80;;;;;;4822342;28;20203;-80
2021/10/09 00:45:02;;;;;;;1.43;1.00;;;;;;;;;;4854784;28;20206;-86
2021/10/09 00:47:26;;;;;;;0.80;0.70;;;4.20;47.40;;;;;;4840941;28;20210;-88
2021/10/09 00:49:49;;;;;;;0.93;0.73;;;4.10;47.90;;;;;;4855637;28;20573;-84
2021/10/09 00:52:12;;;;;;;0.97;0.77;;;4.20;48.10;;;;;;4840705;28;20190;-85
2021/10/09 00:54:38;;;;;;;1.17;0.87;;;4.20;48.10;;;;;;4840746;28;20186;-83
2021/10/09 00:57:04;;;;;;;2.27;1.40;;;4.10;47.90;;;;;;4822604;28;20195;-85
2021/10/09 00:59:28;;;;;;;1.00;0.80;;;4.30;47.50;;;;;;4855204;28;20276;-83
2021/10/09 01:01:51;;;;;;;1.40;0.97;;;4.10;48.00;;;;;;4821120;28;20263;-82
2021/10/09 01:04:16;;;;;;;1.00;0.80;;;4.00;47.90;;;;;;4840604;28;20226;-85
2021/10/09 01:06:39;;;;;;;1.43;1.00;;;;;;;;;;4841902;28;20215;-85
2021/10/09 01:09:02;;;;;;;1.60;1.20;;;;;;;;;;4824630;28;20369;-86
2021/10/09 01:11:26;;;;;;;0.70;0.70;;;4.00;47.10;;;;;;4823520;28;20249;-85
2021/10/09 01:13:48;;;;;;;0.70;0.60;;;3.80;46.90;;;;;;4841625;28;20827;-83
2021/10/09 01:16:29;;;;;;;0.73;0.73;;;3.70;47.60;;;;;;4841133;28;20292;-82
2021/10/09 01:18:56;;;;;;;1.53;1.13;;;3.50;47.40;;;;;;4840683;28;20715;-84
2021/10/09 01:21:21;;;;;;;1.17;0.90;;;3.40;47.30;;;;;;4859269;28;20236;-85
2021/10/09 01:23:48;;;;;;;0.80;0.80;;;3.30;47.20;;;;;;4823694;28;20626;-83
2021/10/09 01:26:11;;;;;;;0.57;0.57;;;3.20;47.10;;;;;;4841091;28;20202;-82
2021/10/09 01:28:37;;;;;;;0.90;0.77;;;3.50;46.80;;;;;;4825042;28;20203;-79
2021/10/09 01:31:00;;;;;;;1.20;0.90;;;3.40;46.50;;;;;;4824929;28;20200;-79
2021/10/09 01:33:22;;;;;;;0.60;0.60;;;;;;;;;;4859102;28;20186;-82
2021/10/09 01:35:47;;;;;;;0.60;0.60;;;3.30;46.20;;;;;;4818980;28;20215;-86
2021/10/09 01:38:11;;;;;;;0.63;0.57;;;2.80;46.70;;;;;;4854916;28;20198;-82
2021/10/09 01:40:34;;;;;;;0.80;0.70;;;2.70;46.00;;;;;;4839220;28;20238;-83
2021/10/09 01:42:56;;;;;;;1.50;1.10;;;2.70;45.80;;;;;;4821466;28;20246;-84
2021/10/09 01:45:19;;;;;;;0.63;0.63;;;2.60;45.80;;;;;;4822257;28;20676;-83
2021/10/09 01:47:42;;;;;;;0.60;0.60;;;;;;;;;;4822337;28;20218;-82
2021/10/09 01:50:07;;;;;;;0.80;0.80;;;2.30;45.60;;;;;;4822155;28;20587;-85
2021/10/09 01:52:31;;;;;;;1.03;0.90;;;2.30;45.80;;;;;;4854911;28;20656;-85
2021/10/09 01:54:55;;;;;;;1.13;1.00;;;2.20;46.20;;;;;;4839664;28;20198;-79
2021/10/09 01:57:19;;;;;;;0.53;0.50;;;;;;;;;;4821568;28;20908;-78
2021/10/09 01:59:43;;;;;;;0.60;0.60;;;2.10;45.60;;;;;;4821811;28;20203;-79
2021/10/09 02:02:14;;;;;;;0.60;0.60;;;;;;;;;;4819580;28;20199;-79
2021/10/09 02:04:37;;;;;;;0.60;0.60;;;1.90;45.70;;;;;;4821671;28;20246;-78
2021/10/09 02:07:00;;;;;;;0.87;0.87;;;;;;;;;;4821157;28;20231;-81
2021/10/09 02:09:23;;;;;;;0.60;0.60;;;;;;;;;;4821931;28;20207;-78
2021/10/09 02:11:48;;;;;;;0.60;0.60;;;1.60;45.30;;;;;;4821309;28;20317;-80
2021/10/09 02:14:19;;;;;;;0.73;0.67;;;;;;;;;;4821153;28;20387;-84
2021/10/09 02:24:56;;;;;;;1.13;0.80;;;;;;;;;;4821508;28;20210;-83
2021/10/09 02:27:21;;;;;;;0.90;0.60;;;1.10;52.10;;;;;;4821940;28;20195;-82
2021/10/09 02:29:44;;;;;;;1.33;0.80;;;;;;;;;;4821445;28;20754;-82
2021/10/09 02:32:07;;;;;;;1.03;0.67;;;0.80;51.70;;;;;;4805253;28;20246;-84
2021/10/09 02:34:30;;;;;;;0.53;0.50;;;0.70;51.10;;;;;;4854273;28;20857;-84
2021/10/09 02:36:52;;;;;;;2.10;1.23;;;1.00;51.40;;;;;;4820868;28;20238;-84
2021/10/09 02:39:15;;;;;;;1.13;0.80;;;0.90;51.50;;;;;;4839054;28;20186;-84
2021/10/09 02:41:43;;;;;;;0.90;0.70;;;0.90;51.80;;;;;;4839170;28;20194;-84
2021/10/09 02:44:07;;;;;;;1.43;1.13;;;0.80;51.10;;;;;;4839048;28;20237;-82
2021/10/09 02:46:32;;;;;;;0.77;0.67;;;;;;;;;;4853983;28;20595;-83
2021/10/09 02:48:54;;;;;;;1.53;1.07;;;1.70;44.10;;;;;;4821021;28;20208;-85
2021/10/09 02:51:17;;;;;;;0.83;0.63;;;;;;;;;;4853775;28;20194;-83
2021/10/09 02:53:40;;;;;;;0.60;0.50;;;0.40;50.90;;;;;;4837301;28;20194;-78
2021/10/09 02:56:03;;;;;;;0.90;0.80;;;;;;;;;;4853429;28;20233;-82
2021/10/09 02:58:30;;;;;;;0.97;0.77;;;0.70;50.90;;;;;;4834251;28;20227;-85
2021/10/09 03:00:54;;;;;;;1.67;1.07;;;0.60;51.20;;;;;;4837639;28;20215;-82
2021/10/09 03:03:17;;;;;;;0.87;0.70;;;0.40;50.50;;;;;;4839287;28;20207;-84
2021/10/09 03:05:39;;;;;;;1.70;0.90;;;0.40;51.10;;;;;;4840036;28;20646;-79
2021/10/09 03:08:02;;;;;;;1.47;1.13;;;1.00;50.50;;;;;;4857610;28;20596;-82
2021/10/09 03:10:26;;;;;;;0.60;0.60;;;0.40;50.30;;;;;;4823673;28;20250;-85
2021/10/09 03:12:49;;;;;;;0.47;0.43;;;0.50;50.20;;;;;;4856970;28;20260;-84
2021/10/09 03:15:14;;;;;;;0.53;0.50;;;;;;;;;;4839613;28;20202;-83
2021/10/09 03:17:38;;;;;;;0.50;0.50;;;0.50;50.10;;;;;;4840034;28;20597;-85
2021/10/09 03:20:01;;;;;;;0.70;0.70;;;0.30;50.00;;;;;;4839394;28;20664;-84
2021/10/09 03:22:23;;;;;;;0.40;0.40;;;0.30;50.40;;;;;;4823112;28;20234;-78
2021/10/09 03:24:46;;;;;;;0.50;0.50;;;-0.90;50.10;;;;;;4839375;28;20611;-79
2021/10/09 03:27:12;;;;;;;0.50;0.50;;;0.20;50.40;;;;;;4838808;28;20707;-81
2021/10/09 03:29:34;;;;;;;0.40;0.40;;;0.20;49.70;;;;;;4857478;28;20243;-84
2021/10/09 03:31:57;;;;;;;1.23;1.03;;;0.30;49.90;;;;;;4857307;28;20182;-83
2021/10/09 03:34:21;;;;;;;0.60;0.60;;;1.10;49.80;;;;;;4842418;28;20198;-82
2021/10/09 03:36:44;;;;;;;0.50;0.50;;;0.40;49.50;;;;;;4844101;28;20598;-84
2021/10/09 03:39:10;;;;;;;0.57;0.57;;;;;;;;;;4829828;28;20207;-84
2021/10/09 03:41:34;;;;;;;0.50;0.50;;;0.10;49.40;;;;;;4839114;28;20933;-81
2021/10/09 03:43:56;;;;;;;1.13;1.03;;;0.30;49.40;;;;;;4824237;28;20794;-84
2021/10/09 03:46:22;;;;;;;0.60;0.60;;;0.00;49.30;;;;;;4824249;28;20639;-85
2021/10/09 03:48:59;;;;;;;0.47;0.47;;;0.10;49.50;;;;;;4824402;28;20203;-82
2021/10/09 03:54:07;;;;;;;0.53;0.50;;;;;;;;;;4824627;28;20211;-81
2021/10/09 03:56:31;;;;;;;0.90;0.63;;;0.10;49.00;;;;;;4824925;28;20565;-83
2021/10/09 03:58:53;;;;;;;2.07;1.13;;;0.10;49.20;;;;;;4808025;28;20243;-83
2021/10/09 04:01:17;;;;;;;0.90;0.70;;;0.10;49.80;;;;;;4823063;28;20727;-79
2021/10/09 04:03:40;;;;;;;0.67;0.60;;;0.10;49.40;;;;;;4824669;28;20677;-79
2021/10/09 04:06:02;;;;;;;1.40;1.07;;;0.30;49.10;;;;;;4824987;28;20211;-84
2021/10/09 04:08:26;;;;;;;1.00;0.80;;;0.20;49.10;;;;;;4826666;28;20234;-84
2021/10/09 04:10:49;;;;;;;0.87;0.67;;;;;;;;;;4825036;28;20199;-84
2021/10/09 04:13:12;;;;;;;1.00;0.67;;;0.10;49.10;;;;;;4824802;28;20204;-84
2021/10/09 04:15:34;;;;;;;0.93;0.70;;;0.10;49.10;;;;;;4857255;28;20644;-84
2021/10/09 04:17:58;;;;;;;1.33;1.03;;;;;;;;;;4823504;28;20250;-79
2021/10/09 04:20:22;;;;;;;0.83;0.77;;;0.00;49.80;;;;;;4824083;28;20613;-82
2021/10/09 04:22:45;;;;;;;0.70;0.70;;;0.10;49.10;;;;;;4856200;28;20224;-84
2021/10/09 04:25:09;;;;;;;0.53;0.47;;;-0.10;49.80;;;;;;4841407;28;21124;-80
2021/10/09 04:27:33;;;;;;;1.07;0.80;;;0.40;49.30;;;;;;4856076;28;20308;-82
2021/10/09 04:29:56;;;;;;;1.43;1.07;;;-0.30;49.10;;;;;;4856121;28;20205;-84
2021/10/09 04:32:19;;;;;;;0.80;0.70;;;-0.20;49.00;;;;;;4856061;28;20210;-84
2021/10/09 04:34:41;;;;;;;0.60;0.60;;;0.10;49.10;;;;;;4823742;28;20242;-83
2021/10/09 04:37:04;;;;;;;0.70;0.70;;;;;;;;;;4855751;28;20233;-77
2021/10/09 04:39:29;;;;;;;0.53;0.53;;;-0.40;49.20;;;;;;4839519;28;20628;-83
2021/10/09 04:41:54;;;;;;;1.53;1.13;;;-0.50;49.10;;;;;;4855556;28;20670;-82
2021/10/09 04:44:17;;;;;;;0.50;0.50;;;;;;;;;;4823017;28;20621;-79
2021/10/09 04:46:42;;;;;;;0.63;0.63;;;-0.50;49.00;;;;;;4822889;28;20723;-83
2021/10/09 04:49:08;;;;;;;0.53;0.53;;;-0.40;49.10;;;;;;4855282;28;20202;-83
2021/10/09 04:51:32;;;;;;;0.60;0.60;;;-0.50;49.20;;;;;;4855588;28;20659;-82
2021/10/09 04:53:55;;;;;;;1.23;1.07;;;;;;;;;;4822411;28;20230;-79
2021/10/09 04:56:19;;;;;;;0.60;0.60;;;;;;;;;;4823784;28;20274;-83
2021/10/09 04:58:44;;;;;;;0.60;0.60;;;-0.50;48.40;;;;;;4822669;28;21108;-80
2021/10/09 05:01:07;;;;;;;0.70;0.70;;;;;;;;;;4820963;28;20553;-81
2021/10/09 05:03:30;;;;;;;0.53;0.53;;;;;;;;;;4822682;28;20701;-82
2021/10/09 05:05:52;;;;;;;1.30;1.10;;;-0.70;48.10;;;;;;4840413;28;20182;-78
2021/10/09 05:08:15;;;;;;;0.60;0.60;;;;;;;;;;4822741;28;20315;-77
2021/10/09 05:10:41;;;;;;;0.60;0.60;;;;;;;;;;4822674;28;20265;-77
2021/10/09 05:13:08;;;;;;;0.50;0.50;;;-0.70;48.70;;;;;;4822425;28;20250;-78
2021/10/09 05:15:33;;;;;;;0.40;0.40;;;-0.60;47.90;;;;;;4822156;28;20283;-82
2021/10/09 05:17:57;;;;;;;1.07;0.97;;;;;;;;;;4822095;28;20689;-82
2021/10/09 05:20:20;;;;;;;0.50;0.50;;;-0.70;47.80;;;;;;4821974;28;20621;-81
2021/10/09 05:22:43;;;;;;;0.57;0.57;;;;;;;;;;4821869;28;20677;-79
2021/10/09 05:25:07;;;;;;;0.70;0.70;;;-0.60;47.70;;;;;;4822058;28;20614;-79
2021/10/09 05:27:30;;;;;;;0.50;0.50;;;-0.50;47.70;;;;;;4821860;28;20952;-83
2021/10/09 05:29:54;;;;;;;1.00;1.00;;;-0.50;47.70;;;;;;4821863;28;20203;-79
2021/10/09 05:32:22;;;;;;;0.60;0.60;;;-0.40;47.70;;;;;;4821923;28;20207;-77
2021/10/09 05:34:45;;;;;;;0.43;0.43;;;-0.50;47.60;;;;;;4821961;28;20207;-77
2021/10/09 05:37:08;;;;;;;0.30;0.30;;;;;;;;;;4821917;28;20231;-77
2021/10/09 05:39:31;;;;;;;0.47;0.47;;;-0.30;47.70;;;;;;4821698;28;20262;-76
2021/10/09 05:41:55;;;;;;;0.90;0.90;;;-0.40;47.50;;;;;;4821028;28;20250;-76
2021/10/09 05:44:18;;;;;;;0.50;0.50;;;-0.30;47.40;;;;;;4821754;28;20653;-76
2021/10/09 05:46:40;;;;;;;0.60;0.60;;;-0.10;47.30;;;;;;4839658;28;20253;-82
2021/10/09 05:49:04;;;;;;;0.70;0.70;;;-0.30;47.60;;;;;;4820695;28;20265;-78
2021/10/09 05:51:31;;;;;;;0.50;0.50;;;;;;;;;;4853827;28;20194;-77
2021/10/09 05:54:09;;;;;;;0.87;0.87;;;;;;;;;;4821371;28;20199;-80
2021/10/09 05:56:41;;;;;;;0.37;0.37;;;0.30;47.30;;;;;;4820797;28;20403;-80
2021/10/09 05:59:25;;;;;;;0.70;0.70;;;0.00;47.80;;;;;;4853821;28;20766;-80
2021/10/09 06:02:07;;;;;;;0.30;0.30;;;;;;;;;;4851827;28;20625;-81
2021/10/09 06:59:30;;;;;;;0.50;0.50;;;4.50;45.40;;;;;;4833805;28;20210;-80
2021/10/09 07:01:53;;;;;;;0.87;0.73;;;;;;;;;;4837285;28;20257;-79
2021/10/09 07:04:16;;;;;;;0.70;0.70;;;4.90;46.30;;;;;;4839485;28;20202;-80
2021/10/09 07:06:42;;;;;;;0.80;0.80;;;4.90;45.70;;;;;;4820016;28;20239;-80
2021/10/09 07:09:10;;;;;;;1.00;1.00;;;5.10;45.80;;;;;;4835570;28;20194;-82
2021/10/09 07:11:38;;;;;;;0.50;0.50;;;;;;;;;;4836579;28;20727;-80
2021/10/09 07:14:01;;;;;;;1.37;1.27;;;;;;;;;;4836763;28;20199;-78
2021/10/09 07:16:24;;;;;;;0.60;0.60;;;5.40;46.50;;;;;;4837135;28;20330;-80
2021/10/09 07:18:47;;;;;;;0.67;0.67;;;;;;;;;;4836566;28;20266;-80
2021/10/09 07:21:10;;;;;;;0.50;0.50;;;5.40;46.90;;;;;;4837109;28;20202;-78
2021/10/09 07:23:34;;;;;;;0.53;0.53;;;;;;;;;;4836516;28;20195;-80
2021/10/09 07:25:57;;;;;;;1.40;1.10;;;5.60;46.60;;;;;;4837280;28;20641;-87
2021/10/09 07:28:20;;;;;;;0.70;0.70;;;6.00;47.20;;;;;;4838868;28;20191;-87
2021/10/09 07:30:43;;;;;;;0.90;0.70;;;5.70;47.50;;;;;;4837535;28;20688;-89
2021/10/09 07:33:06;;;;;;;1.13;1.00;;;5.80;48.20;;;;;;4838719;28;20187;-83
2021/10/09 07:35:29;;;;;;;0.63;0.63;;;;;;;;;;4837330;28;20222;-86
2021/10/09 07:37:51;;;;;;;0.70;0.67;;;;;;;;;;4837730;28;20222;-83
2021/10/09 07:40:14;;;;;;;1.17;0.90;;;8.60;49.80;;;;;;4838457;28;20256;-83
2021/10/09 07:42:38;;;;;;;0.97;0.87;;;9.10;50.70;;;;;;4821330;28;20254;-82
2021/10/09 07:45:01;;;;;;;1.13;1.00;;;10.00;51.10;;;;;;4818325;28;20191;-83
2021/10/09 07:47:24;;;;;;;0.70;0.60;;;10.30;51.60;;;;;;4818373;28;20197;-83
2021/10/09 07:49:46;;;;;;;0.90;0.80;;;9.80;52.20;;;;;;4818877;28;20612;-83
2021/10/09 07:52:09;;;;;;;1.10;1.00;;;10.30;52.40;;;;;;4817392;28;20702;-85
2021/10/09 07:54:31;;;;;;;0.63;0.60;;;10.50;53.20;;;;;;4819163;28;20257;-85
2021/10/09 07:56:54;;;;;;;1.93;1.17;;;;;;;;;;4818624;28;20245;-84
2021/10/09 07:59:18;;;;;;;1.03;0.80;;;10.70;53.90;;;;;;4818862;28;20206;-85
2021/10/09 08:01:40;;;;;;;0.90;0.80;;;11.40;53.50;;;;;;4815849;28;20681;-86
2021/10/09 08:04:03;;;;;;;2.00;1.37;;;10.50;53.10;;;;;;4817467;28;20623;-83
2021/10/09 08:06:26;;;;;;;0.67;0.60;;;10.00;53.30;;;;;;4818341;28;20556;-84
2021/10/09 08:08:49;;;;;;;0.90;0.70;;;10.50;53.00;;;;;;4820585;28;20203;-83
2021/10/09 08:11:11;;;;;;;0.60;0.60;;;;;;;;;;4820450;28;20211;-84
2021/10/09 08:13:36;;;;;;;0.93;0.73;;;10.20;53.50;;;;;;4837710;28;20214;-84
2021/10/09 08:16:00;;;;;;;1.60;1.10;;;9.90;54.10;;;;;;4820112;28;20245;-86
2021/10/09 08:18:22;;;;;;;1.07;0.90;;;;;;;;;;4820021;28;20267;-85
2021/10/09 08:20:47;;;;;;;1.13;0.97;;;9.80;53.10;;;;;;4821718;28;20230;-86
2021/10/09 08:23:13;;;;;;;1.23;0.97;;;;;;;;;;4855657;28;20202;-82
2021/10/09 08:36:33;;;;;;;0.60;0.60;;;;;;;;;;4823242;28;20195;-82
2021/10/09 08:38:55;;;;;;;1.30;0.97;;;;;;;;;;4807106;28;20220;-89
2021/10/09 08:41:18;;;;;;;0.83;0.73;;;;;;;;;;4823980;28;20187;-80
2021/10/09 08:43:43;;;;;;;0.90;0.60;;;10.30;53.20;;;;;;4823319;28;20231;-82
2021/10/09 08:46:06;;;;;;;3.03;1.57;;;10.40;53.60;;;;;;4832121;28;20191;-84
2021/10/09 08:48:40;;;;;;;2.10;1.17;;;10.70;54.30;;;;;;4853977;28;20884;-85
2021/10/09 08:51:03;;;;;;;4.33;1.83;;;11.60;54.80;;;;;;4855186;28;20190;-85
2021/10/09 08:53:36;;;;;;;3.23;1.40;;;11.40;53.90;;;;;;4839102;28;20179;-84
2021/10/09 08:55:58;;;;;;;3.93;1.50;;;11.30;53.90;;;;;;4839586;28;20178;-81
2021/10/09 08:58:32;;;;;;;3.77;1.43;;;11.60;55.10;;;;;;4821060;28;20247;-81
2021/10/09 09:01:04;;;;;;;4.93;1.47;;;;;;;;;;4819079;28;20222;-83
2021/10/09 09:06:58;;;;;;;3.47;1.13;;;12.30;55.70;;;;;;4803120;28;20219;-82
2021/10/09 09:31:21;;;;;;;10.10;1.67;;;;;;;;;;4795994;28;20897;-84
2021/10/09 09:39:09;;;;;;;26.87;3.13;;;19.40;60.00;;;;;;4830550;28;20288;-83
2021/10/09 09:41:43;;;;;;;7.60;1.10;;;21.10;60.90;;;;;;4819375;28;20208;-82
2021/10/09 09:44:12;;;;;;;17.10;2.30;;;22.30;61.60;;;;;;4820378;28;20261;-83
2021/10/09 09:46:35;;;;;;;10.57;1.47;;;;;;;;;;4820512;28;20203;-83
2021/10/09 09:48:57;;;;;;;22.17;2.60;;;;;;;;;;4836984;28;20233;-80
2021/10/09 09:51:23;;;;;;;16.17;2.03;;;23.10;62.00;;;;;;4837913;28;20190;-82
2021/10/09 09:53:47;;;;;;;12.07;1.53;;;24.40;62.70;;;;;;4838486;28;20253;-84
2021/10/09 09:56:11;;;;;;;21.57;2.57;;;26.10;48.50;;;;;;4837886;28;20197;-82
2021/10/09 09:58:37;;;;;;;10.77;1.37;;;27.80;49.10;;;;;;4837642;28;20635;-81
2021/10/09 10:01:01;;;;;;;25.67;2.97;;;29.50;49.70;;;;;;4817994;28;20205;-82
2021/10/09 10:03:25;;;;;;;18.03;2.23;;;30.80;50.20;;;;;;4820848;28;20683;-84
2021/10/09 10:05:48;;;;;;;14.33;1.80;;;;;;;;;;4853829;28;20186;-85
2021/10/09 10:08:13;;;;;;;10.43;1.37;;;33.00;51.00;;;;;;4820838;28;20319;-84
2021/10/09 10:10:36;;;;;;;17.13;2.07;;;;;;;;;;4836747;28;20179;-83
2021/10/09 10:13:00;;;;;;;26.80;3.10;;;34.30;51.50;;;;;;4820691;28;20261;-83
2021/10/09 10:15:28;;;;;;;18.13;2.17;;;35.00;51.70;;;;;;4838150;28;20183;-85
2021/10/09 10:17:51;;;;;;;12.90;1.63;;;;;;;;;;4838041;28;20221;-84
2021/10/09 10:20:14;;;;;;;14.77;1.83;;;36.20;52.20;;;;;;4818887;28;20202;-84
2021/10/09 10:22:58;;;;;;;18.97;2.37;;;36.70;50.90;;;;;;4819906;28;20206;-82
2021/10/09 10:25:31;;;;;;;21.67;2.53;;;37.10;52.30;;;;;;4837877;28;20303;-79
2021/10/09 10:27:58;;;;;;;20.27;2.40;;;37.60;52.70;;;;;;4837713;28;20184;-79
2021/10/09 10:30:24;;;;;;;18.83;2.23;;;37.60;52.70;;;;;;4836332;28;20215;-78
2021/10/09 10:33:47;;;;;;;15.90;1.93;;;37.30;52.70;;;;;;4837300;28;20185;-77
2021/10/09 10:36:13;;;;;;;24.93;2.90;;;38.20;52.90;;;;;;4836414;28;20264;-80
2021/10/09 10:38:54;;;;;;;14.20;1.73;;;38.30;53.00;;;;;;4837514;28;20245;-81
2021/10/09 10:41:20;;;;;;;26.70;3.20;;;;;;;;;;4836439;28;20879;-82
2021/10/09 10:43:47;;;;;;;14.40;1.83;;;;;;;;;;4836942;28;20178;-80
2021/10/09 10:46:33;;;;;;;9.67;1.23;;;38.60;53.10;;;;;;4837543;28;20559;-83
2021/10/09 10:48:58;;;;;;;18.88;2.38;;;39.10;53.30;;;;;;4837247;28;20210;-78
2021/10/09 10:51:43;;;;;;;12.67;1.53;;;38.90;53.20;;;;;;4836892;28;20236;-80
2021/10/09 10:54:11;;;;;;;17.00;2.03;;;39.10;53.30;;;;;;4836411;28;20624;-81
2021/10/09 10:56:34;;;;;;;10.95;1.35;;;;;;;;;;4850320;28;20193;-80
2021/10/09 10:59:27;;;;;;;22.38;2.63;;;38.20;53.00;;;;;;4838264;28;20257;-83
2021/10/09 11:02:08;;;;;;;13.93;1.70;;;35.80;52.20;;;;;;4819800;28;20214;-82
2021/10/09 11:04:35;;;;;;;11.23;1.40;;;33.60;51.50;;;;;;4837318;28;20938;-82
2021/10/09 11:06:59;;;;;;;26.50;2.97;;;33.00;51.30;;;;;;4855870;28;20273;-80
2021/10/09 11:09:24;;;;;;;13.77;1.73;;;33.90;51.60;;;;;;4856529;28;20230;-83
2021/10/09 11:11:46;;;;;;;11.07;1.40;;;;;;;;;;4837539;28;20735;-83
2021/10/09 11:14:21;;;;;;;14.93;1.90;;;36.10;52.40;;;;;;4855271;28;20870;-80
2021/10/09 11:16:44;;;;;;;10.10;1.37;;;;;;;;;;4838196;28;20670;-82
2021/10/09 11:19:07;;;;;;;19.00;2.37;;;;;;;;;;4838550;28;20189;-83
2021/10/09 11:21:31;;;;;;;15.47;1.97;;;;;;;;;;4855527;28;20194;-84
2021/10/09 11:23:57;;;;;;;14.93;1.93;;;39.00;53.30;;;;;;4855737;28;20540;-83
2021/10/09 11:26:20;;;;;;;12.02;1.52;;;39.50;52.10;;;;;;4837461;28;20297;-82
2021/10/09 11:28:43;;;;;;;11.10;1.53;;;;;;;;;;4856210;28;20544;-82
2021/10/09 11:31:06;;;;;;;22.27;2.78;;;;;;;;;;4820737;28;20223;-84
2021/10/09 11:33:29;;;;;;;16.38;2.05;;;40.40;53.70;;;;;;4838583;28;20245;-88
2021/10/09 11:35:52;;;;;;;15.85;2.00;;;41.60;53.80;;;;;;4855090;28;20247;-83
2021/10/09 11:38:21;;;;;;;11.65;1.50;;;42.10;54.30;;;;;;4855821;28;20558;-86
2021/10/09 11:40:49;;;;;;;12.25;1.52;;;42.40;53.10;;;;;;4818444;28;20269;-84
2021/10/09 11:43:17;;;;;;;9.10;1.25;;;42.70;53.50;;;;;;4819350;28;20203;-85
2021/10/09 11:45:46;;;;;;;10.98;1.38;;;;;;;;;;4836733;28;20198;-85
2021/10/09 11:53:41;;;;;;;10.77;1.35;;;;;;;;;;4819384;28;20190;-85
2021/10/09 11:56:07;;;;;;;23.85;2.78;;;42.90;54.60;;;;;;4819822;28;20631;-86
2021/10/09 11:58:30;;;;;;;10.88;1.38;;;43.60;53.40;;;;;;4821017;28;20211;-86
2021/10/09 12:00:53;;;;;;;13.68;1.70;;;43.40;54.70;;;;;;4831999;28;20267;-85
2021/10/09 12:03:34;;;;;;;14.70;1.83;;;43.20;54.60;;;;;;4855461;28;20218;-84
2021/10/09 12:05:59;;;;;;;24.35;2.90;;;43.40;54.50;;;;;;4854866;28;20228;-83
2021/10/09 12:08:25;;;;;;;21.60;2.65;;;;;;;;;;4838862;28;20230;-84
2021/10/09 12:11:11;;;;;;;18.02;2.28;;;44.50;53.70;;;;;;4839547;28;20260;-85
2021/10/09 12:13:45;;;;;;;14.07;1.88;;;44.60;55.20;;;;;;4840381;28;20178;-84
2021/10/09 12:16:11;;;;;;;21.40;2.58;;;44.90;55.20;;;;;;4840227;28;20225;-84
2021/10/09 12:18:48;;;;;;;18.10;2.25;;;44.50;55.10;;;;;;4821954;28;20245;-85
2021/10/09 12:21:11;;;;;;;9.13;1.23;;;45.00;55.30;;;;;;4821592;28;20207;-82
2021/10/09 12:23:34;;;;;;;12.68;1.55;;;44.50;55.10;;;;;;4839300;28;20182;-86
2021/10/09 12:26:12;;;;;;;19.95;2.47;;;44.70;55.20;;;;;;4805979;28;20206;-84
2021/10/09 12:28:35;;;;;;;9.52;1.23;;;;;;;;;;4854776;28;20198;-84
2021/10/09 12:30:58;;;;;;;24.45;2.95;;;;;;;;;;4820154;28;20222;-84
2021/10/09 12:33:34;;;;;;;11.68;1.45;;;44.70;55.10;;;;;;4839801;28;20186;-85
2021/10/09 12:35:58;;;;;;;22.20;2.60;;;;;;;;;;4839592;28;20295;-84
2021/10/09 12:38:21;;;;;;;15.43;1.95;;;;;;;;;;4822087;28;20646;-86
2021/10/09 12:40:45;;;;;;;23.50;2.85;;;44.80;55.20;;;;;;4820818;28;20258;-82
2021/10/09 12:43:12;;;;;;;18.23;2.25;;;44.80;55.20;;;;;;4839565;28;20194;-85
2021/10/09 12:45:35;;;;;;;10.02;1.38;;;45.90;54.00;;;;;;4805945;28;20255;-83
2021/10/09 12:47:59;;;;;;;27.35;3.17;;;45.60;55.50;;;;;;4839351;28;20186;-85
2021/10/09 12:50:22;;;;;;;17.23;2.10;;;;;;;;;;4839088;28;20214;-85
2021/10/09 12:52:46;;;;;;;13.52;1.73;;;;;;;;;;4838668;28;20715;-83
2021/10/09 12:55:09;;;;;;;28.55;3.40;;;;;;;;;;4839415;28;20213;-84
2021/10/09 12:57:32;;;;;;;8.35;1.10;;;;;;;;;;4856291;28;20241;-84
2021/10/09 12:59:56;;;;;;;17.23;2.08;;;41.90;54.30;;;;;;4857721;28;20232;-84
2021/10/09 13:02:19;;;;;;;22.60;2.80;;;41.10;52.60;;;;;;4855726;28;20182;-84
2021/10/09 13:04:41;;;;;;;13.27;1.63;;;;;;;;;;4840745;28;20194;-83
2021/10/09 13:07:07;;;;;;;23.70;2.88;;;;;;;;;;4822814;28;20264;-84
2021/10/09 13:09:30;;;;;;;15.80;1.88;;;;;;;;;;4845852;28;20645;-85
2021/10/09 13:11:56;;;;;;;18.80;2.25;;;;;;;;;;4836851;28;20700;-84
2021/10/09 13:14:28;;;;;;;20.53;2.50;;;;;;;;;;4821121;28;20297;-85
2021/10/09 13:16:53;;;;;;;10.83;1.40;;;28.30;49.70;;;;;;4821539;28;20821;-83
2021/10/09 13:19:16;;;;;;;18.83;2.20;;;;;;;;;;4837409;28;20197;-80
2021/10/09 13:21:39;;;;;;;21.80;2.63;;;;;;;;;;4836976;28;20293;-85
2021/10/09 13:24:02;;;;;;;25.03;3.03;;;;;;;;;;4837823;28;20192;-81
2021/10/09 13:26:24;;;;;;;11.97;1.57;;;;;;;;;;4837781;28;20203;-82
2021/10/09 13:28:47;;;;;;;12.97;1.70;;;;;;;;;;4837146;28;20202;-83
2021/10/09 13:31:10;;;;;;;15.97;2.10;;;;;;;;;;4836781;28;20220;-85
2021/10/09 13:33:34;;;;;;;9.53;1.40;;;19.80;61.10;;;;;;4854099;28;20282;-83
2021/10/09 13:35:57;;;;;;;20.73;2.67;;;;;;;;;;4820796;28;20272;-83
2021/10/09 13:38:20;;;;;;;16.87;2.30;;;;;;;;;;4837361;28;20272;-81
2021/10/09 13:40:43;;;;;;;13.77;1.87;;;;;;;;;;4836258;28;20191;-82
2021/10/09 13:43:09;;;;;;;17.67;2.20;;;;;;;;;;4821287;28;20708;-81
2021/10/09 13:45:32;;;;;;;19.47;2.43;;;;;;;;;;4836302;28;20214;-81
2021/10/09 13:47:54;;;;;;;9.97;1.40;;;;;;;;;;4837299;28;20199;-82
2021/10/09 13:50:18;;;;;;;14.57;2.00;;;16.50;59.50;;;;;;4852539;28;20218;-82
2021/10/09 13:52:41;;;;;;;11.20;1.50;;;16.20;59.40;;;;;;4838393;28;20227;-82
2021/10/09 13:55:04;;;;;;;16.37;2.13;;;;;;;;;;4820595;28;20616;-81
2021/10/09 13:57:27;;;;;;;12.40;1.63;;;;;;;;;;4836362;28;20274;-82
2021/10/09 13:59:50;;;;;;;15.07;2.00;;;;;;;;;;4836689;28;20703;-81
2021/10/09 14:02:13;;;;;;;8.53;1.17;;;;;;;;;;4819717;28;20769;-83
2021/10/09 14:04:38;;;;;;;17.53;2.00;;;;;;;;;;4837237;28;20191;-80
2021/10/09 14:07:02;;;;;;;25.67;3.20;;;14.80;58.70;;;;;;4836585;28;20250;-82
2021/10/09 14:09:25;;;;;;;16.50;2.07;;;;;;;;;;4837006;28;20190;-83
2021/10/09 14:11:48;;;;;;;13.90;1.80;;;;;;;;;;4852667;28;20218;-82
2021/10/09 14:14:11;;;;;;;20.23;2.37;;;;;;;;;;4836762;28;20194;-83
2021/10/09 14:16:33;;;;;;;15.43;1.90;;;;;;;;;;4838156;28;20245;-81
2021/10/09 14:18:56;;;;;;;20.07;2.40;;;;;;;;;;4836807;28;20195;-82
2021/10/09 14:21:19;;;;;;;14.43;1.90;;;;;;;;;;4836863;28;20199;-82
2021/10/09 14:23:43;;;;;;;8.33;1.07;;;12.10;57.60;;;;;;4820860;28;20294;-82
2021/10/09 14:26:06;;;;;;;17.80;2.10;;;;;;;;;;4804315;28;20199;-82
2021/10/09 14:28:29;;;;;;;14.27;1.93;;;;;;;;;;4821323;28;20258;-82
2021/10/09 14:30:52;;;;;;;11.37;1.70;;;;;;;;;;4835369;28;20210;-83
2021/10/09 14:33:14;;;;;;;11.53;1.73;;;;;;;;;;4836532;28;20195;-83
2021/10/09 14:35:37;;;;;;;11.13;1.63;;;;;;;;;;4835838;28;20685;-82
2021/10/09 14:38:00;;;;;;;18.67;2.50;;;;;;;;;;4836077;28;20254;-81
2021/10/09 14:40:24;;;;;;;11.27;1.57;;;12.90;57.70;;;;;;4818274;28;20205;-82
2021/10/09 14:42:47;;;;;;;12.37;1.77;;;12.80;57.60;;;;;;4803943;28;20231;-83
2021/10/09 14:45:10;;;;;;;14.30;2.00;;;13.20;57.70;;;;;;4820679;28;20681;-81
2021/10/09 14:47:45;;;;;;;9.63;1.47;;;;;;;;;;4837591;28;20213;-80
2021/10/09 14:50:31;;;;;;;24.13;3.20;;;12.40;57.40;;;;;;4819113;28;20202;-83
2021/10/09 15:19:50;;;;;;;15.47;2.30;;;;;;;;;;4831160;28;20203;-81
2021/10/09 15:22:13;;;;;;;7.87;1.27;;;;;;;;;;4822407;28;20211;-81
2021/10/09 15:24:36;;;;;;;8.07;1.37;;;;;;;;;;4821638;28;20253;-82
2021/10/09 15:27:00;;;;;;;19.90;2.90;;;10.90;56.60;;;;;;4855879;28;20582;-83
2021/10/09 15:29:22;;;;;;;11.93;1.87;;;;;;;;;;4855259;28;20186;-82
2021/10/09 15:31:45;;;;;;;9.47;1.50;;;;;;;;;;4836060;28;20230;-82
2021/10/09 15:34:08;;;;;;;24.63;3.43;;;;;;;;;;4835611;28;20199;-80
2021/10/09 15:36:31;;;;;;;13.20;2.07;;;;;;;;;;4819237;28;20188;-83